sensor_id;sensor_type;location;lat;lon;timestamp;pressure;altitude;pressure_sealevel;temperature;humidity
13068;BME280;6600;51.362;6.686;2023-09-19T00:02:12;100418.00;;;16.79;100.00
13068;BME280;6600;51.362;6.686;2023-09-19T00:04:37;100421.78;;;16.78;100.00
13068;BME280;6600;51.362;6.686;2023-09-19T00:07:05;100423.91;;;16.71;100.00
13068;BME280;6600;51.362;6.686;2023-09-19T00:09:30;100419.03;;;16.73;100.00
13068;BME280;6600;51.362;6.686;2023-09-19T00:12:02;100427.13;;;16.67;100.00
13068;BME280;6600;51.362;6.686;2023-09-19T00:14:28;100423.38;;;16.74;100.00
13068;BME280;6600;51.362;6.686;2023-09-19T00:16:53;100422.31;;;16.75;100.00
13068;BME280;6600;51.362;6.686;2023-09-19T00:19:19;100423.63;;;16.72;100.00
13068;BME280;6600;51.362;6.686;2023-09-19T00:21:45;100428.69;;;16.58;100.00
13068;BME280;6600;51.362;6.686;2023-09-19T00:24:12;100426.56;;;16.60;100.00
13068;BME280;6600;51.362;6.686;2023-09-19T00:26:39;100430.03;;;16.56;100.00
13068;BME280;6600;51.362;6.686;2023-09-19T00:29:04;100433.56;;;16.56;100.00
13068;BME280;6600;51.362;6.686;2023-09-19T00:31:30;100436.25;;;16.56;100.00
13068;BME280;6600;51.362;6.686;2023-09-19T00:33:55;100434.03;;;16.53;100.00
13068;BME280;6600;51.362;6.686;2023-09-19T00:36:25;100432.41;;;16.47;100.00
13068;BME280;6600;51.362;6.686;2023-09-19T00:38:50;100431.00;;;16.45;100.00
13068;BME280;6600;51.362;6.686;2023-09-19T00:41:15;100432.09;;;16.44;100.00
13068;BME280;6600;51.362;6.686;2023-09-19T00:43:41;100438.81;;;16.41;100.00
13068;BME280;6600;51.362;6.686;2023-09-19T00:46:07;100443.44;;;16.41;100.00
13068;BME280;6600;51.362;6.686;2023-09-19T00:48:40;100436.41;;;16.40;100.00
13068;BME280;6600;51.362;6.686;2023-09-19T00:51:06;100441.22;;;16.38;100.00
13068;BME280;6600;51.362;6.686;2023-09-19T00:53:32;100446.91;;;16.36;100.00
13068;BME280;6600;51.362;6.686;2023-09-19T00:55:59;100456.88;;;16.31;100.00
13068;BME280;6600;51.362;6.686;2023-09-19T01:00:57;100446.88;;;16.31;100.00
13068;BME280;6600;51.362;6.686;2023-09-19T01:03:23;100455.25;;;16.30;100.00
13068;BME280;6600;51.362;6.686;2023-09-19T01:05:49;100463.09;;;16.31;100.00
13068;BME280;6600;51.362;6.686;2023-09-19T01:08:14;100461.72;;;16.29;100.00
13068;BME280;6600;51.362;6.686;2023-09-19T01:11:06;100467.97;;;16.34;100.00
13068;BME280;6600;51.362;6.686;2023-09-19T01:19:22;100475.41;;;16.17;100.00
13068;BME280;6600;51.362;6.686;2023-09-19T01:22:08;100480.25;;;16.10;100.00
13068;BME280;6600;51.362;6.686;2023-09-19T01:28:20;100486.22;;;16.17;100.00
13068;BME280;6600;51.362;6.686;2023-09-19T01:30:56;100491.69;;;16.22;100.00
13068;BME280;6600;51.362;6.686;2023-09-19T01:33:24;100492.66;;;16.11;100.00
13068;BME280;6600;51.362;6.686;2023-09-19T01:38:37;100493.69;;;16.05;100.00
13068;BME280;6600;51.362;6.686;2023-09-19T01:41:07;100500.22;;;16.09;100.00
13068;BME280;6600;51.362;6.686;2023-09-19T01:43:41;100504.50;;;16.05;100.00
13068;BME280;6600;51.362;6.686;2023-09-19T01:46:25;100500.75;;;16.06;100.00
13068;BME280;6600;51.362;6.686;2023-09-19T01:54:18;100500.97;;;15.99;100.00
13068;BME280;6600;51.362;6.686;2023-09-19T01:57:00;100502.25;;;15.97;100.00
13068;BME280;6600;51.362;6.686;2023-09-19T01:59:35;100502.53;;;15.95;100.00
13068;BME280;6600;51.362;6.686;2023-09-19T02:02:01;100509.81;;;15.95;100.00
13068;BME280;6600;51.362;6.686;2023-09-19T02:04:27;100505.75;;;15.92;100.00
13068;BME280;6600;51.362;6.686;2023-09-19T02:06:53;100514.63;;;15.88;100.00
13068;BME280;6600;51.362;6.686;2023-09-19T02:09:18;100518.44;;;15.92;100.00
13068;BME280;6600;51.362;6.686;2023-09-19T02:11:43;100521.91;;;15.87;100.00
13068;BME280;6600;51.362;6.686;2023-09-19T02:14:09;100518.88;;;15.84;100.00
13068;BME280;6600;51.362;6.686;2023-09-19T02:16:34;100519.41;;;15.81;100.00
13068;BME280;6600;51.362;6.686;2023-09-19T02:19:00;100521.03;;;15.82;100.00
13068;BME280;6600;51.362;6.686;2023-09-19T02:21:26;100524.81;;;15.81;100.00
13068;BME280;6600;51.362;6.686;2023-09-19T02:23:55;100528.56;;;15.80;100.00
13068;BME280;6600;51.362;6.686;2023-09-19T02:26:20;100533.47;;;15.83;100.00
13068;BME280;6600;51.362;6.686;2023-09-19T02:28:45;100529.69;;;15.84;100.00
13068;BME280;6600;51.362;6.686;2023-09-19T02:31:11;100529.66;;;15.79;100.00
13068;BME280;6600;51.362;6.686;2023-09-19T02:33:37;100530.72;;;15.78;100.00
13068;BME280;6600;51.362;6.686;2023-09-19T02:36:02;100530.81;;;15.88;100.00
13068;BME280;6600;51.362;6.686;2023-09-19T02:38:29;100534.03;;;15.85;100.00
13068;BME280;6600;51.362;6.686;2023-09-19T02:40:55;100537.81;;;15.84;100.00
13068;BME280;6600;51.362;6.686;2023-09-19T02:43:21;100529.38;;;15.80;100.00
13068;BME280;6600;51.362;6.686;2023-09-19T02:45:47;100539.38;;;15.80;100.00
13068;BME280;6600;51.362;6.686;2023-09-19T02:48:15;100533.97;;;15.80;100.00
13068;BME280;6600;51.362;6.686;2023-09-19T02:50:40;100536.13;;;15.78;100.00
13068;BME280;6600;51.362;6.686;2023-09-19T02:53:06;100542.84;;;15.75;100.00
13068;BME280;6600;51.362;6.686;2023-09-19T02:55:31;100548.50;;;15.74;100.00
13068;BME280;6600;51.362;6.686;2023-09-19T02:57:57;100542.28;;;15.73;99.94
13068;BME280;6600;51.362;6.686;2023-09-19T03:00:23;100545.19;;;15.66;99.68
13068;BME280;6600;51.362;6.686;2023-09-19T03:02:58;100553.34;;;15.72;99.83
13068;BME280;6600;51.362;6.686;2023-09-19T03:05:24;100558.44;;;15.68;99.91
13068;BME280;6600;51.362;6.686;2023-09-19T03:07:51;100557.00;;;15.60;100.00
13068;BME280;6600;51.362;6.686;2023-09-19T03:10:18;100558.94;;;15.65;99.91
13068;BME280;6600;51.362;6.686;2023-09-19T03:12:43;100563.41;;;15.54;100.00
13068;BME280;6600;51.362;6.686;2023-09-19T03:15:09;100558.56;;;15.56;100.00
13068;BME280;6600;51.362;6.686;2023-09-19T03:17:34;100553.16;;;15.56;100.00
13068;BME280;6600;51.362;6.686;2023-09-19T03:20:01;100557.50;;;15.57;100.00
13068;BME280;6600;51.362;6.686;2023-09-19T03:22:27;100565.03;;;15.55;100.00
13068;BME280;6600;51.362;6.686;2023-09-19T03:24:52;100556.91;;;15.55;100.00
13068;BME280;6600;51.362;6.686;2023-09-19T03:27:18;100547.22;;;15.54;100.00
13068;BME280;6600;51.362;6.686;2023-09-19T03:29:43;100557.19;;;15.54;100.00
13068;BME280;6600;51.362;6.686;2023-09-19T03:32:09;100550.97;;;15.53;100.00
13068;BME280;6600;51.362;6.686;2023-09-19T03:34:38;100555.31;;;15.54;100.00
13068;BME280;6600;51.362;6.686;2023-09-19T03:37:05;100566.03;;;15.49;100.00
13068;BME280;6600;51.362;6.686;2023-09-19T03:39:32;100566.03;;;15.49;100.00
13068;BME280;6600;51.362;6.686;2023-09-19T03:41:57;100565.22;;;15.49;100.00
13068;BME280;6600;51.362;6.686;2023-09-19T03:44:22;100568.53;;;15.56;100.00
13068;BME280;6600;51.362;6.686;2023-09-19T03:46:48;100568.22;;;15.52;100.00
13068;BME280;6600;51.362;6.686;2023-09-19T03:49:13;100558.53;;;15.51;100.00
13068;BME280;6600;51.362;6.686;2023-09-19T03:51:38;100564.19;;;15.55;100.00
13068;BME280;6600;51.362;6.686;2023-09-19T03:54:04;100565.66;;;15.62;100.00
13068;BME280;6600;51.362;6.686;2023-09-19T03:56:30;100565.66;;;15.62;99.64
13068;BME280;6600;51.362;6.686;2023-09-19T03:58:56;100562.19;;;15.67;99.73
13068;BME280;6600;51.362;6.686;2023-09-19T04:01:21;100557.81;;;15.61;100.00
13068;BME280;6600;51.362;6.686;2023-09-19T04:03:46;100564.50;;;15.58;100.00
13068;BME280;6600;51.362;6.686;2023-09-19T04:06:14;100562.09;;;15.57;100.00
13068;BME280;6600;51.362;6.686;2023-09-19T04:08:39;100570.38;;;15.50;100.00
13068;BME280;6600;51.362;6.686;2023-09-19T04:11:04;100561.78;;;15.53;100.00
13068;BME280;6600;51.362;6.686;2023-09-19T04:13:30;100563.69;;;15.36;100.00
13068;BME280;6600;51.362;6.686;2023-09-19T04:15:55;100565.78;;;15.34;100.00
13068;BME280;6600;51.362;6.686;2023-09-19T04:18:21;100561.09;;;15.46;100.00
13068;BME280;6600;51.362;6.686;2023-09-19T04:20:51;100559.94;;;15.37;100.00
13068;BME280;6600;51.362;6.686;2023-09-19T04:23:16;100561.47;;;15.50;100.00
13068;BME280;6600;51.362;6.686;2023-09-19T04:25:42;100564.47;;;15.53;100.00
13068;BME280;6600;51.362;6.686;2023-09-19T04:28:08;100572.81;;;15.52;100.00
13068;BME280;6600;51.362;6.686;2023-09-19T04:30:35;100562.00;;;15.52;100.00
13068;BME280;6600;51.362;6.686;2023-09-19T04:33:00;100565.78;;;15.51;100.00
13068;BME280;6600;51.362;6.686;2023-09-19T04:35:27;100557.84;;;15.44;100.00
13068;BME280;6600;51.362;6.686;2023-09-19T04:37:56;100559.47;;;15.45;100.00
13068;BME280;6600;51.362;6.686;2023-09-19T04:40:22;100555.22;;;15.49;100.00
13068;BME280;6600;51.362;6.686;2023-09-19T04:42:58;100561.78;;;15.53;100.00
13068;BME280;6600;51.362;6.686;2023-09-19T04:45:26;100560.06;;;15.47;100.00
13068;BME280;6600;51.362;6.686;2023-09-19T04:47:52;100561.09;;;15.46;100.00
13068;BME280;6600;51.362;6.686;2023-09-19T04:50:17;100563.25;;;15.44;100.00
13068;BME280;6600;51.362;6.686;2023-09-19T04:52:44;100565.69;;;15.46;100.00
13068;BME280;6600;51.362;6.686;2023-09-19T04:55:13;100577.22;;;15.41;100.00
13068;BME280;6600;51.362;6.686;2023-09-19T04:57:46;100571.84;;;15.41;100.00
13068;BME280;6600;51.362;6.686;2023-09-19T05:00:22;100586.47;;;15.45;100.00
13068;BME280;6600;51.362;6.686;2023-09-19T05:02:55;100588.03;;;15.41;100.00
13068;BME280;6600;51.362;6.686;2023-09-19T05:05:21;100589.00;;;15.30;100.00
13068;BME280;6600;51.362;6.686;2023-09-19T05:07:48;100611.13;;;15.32;100.00
13068;BME280;6600;51.362;6.686;2023-09-19T05:10:13;100616.63;;;15.37;100.00
13068;BME280;6600;51.362;6.686;2023-09-19T05:12:39;100619.31;;;15.37;100.00
13068;BME280;6600;51.362;6.686;2023-09-19T05:15:06;100620.88;;;15.33;100.00
13068;BME280;6600;51.362;6.686;2023-09-19T05:17:34;100625.47;;;15.33;100.00
13068;BME280;6600;51.362;6.686;2023-09-19T05:20:01;100625.69;;;15.31;100.00
13068;BME280;6600;51.362;6.686;2023-09-19T05:22:43;100624.63;;;15.32;100.00
13068;BME280;6600;51.362;6.686;2023-09-19T05:25:10;100629.03;;;15.38;100.00
13068;BME280;6600;51.362;6.686;2023-09-19T05:27:36;100639.91;;;15.43;100.00
13068;BME280;6600;51.362;6.686;2023-09-19T05:30:01;100635.91;;;15.46;100.00
13068;BME280;6600;51.362;6.686;2023-09-19T05:32:27;100646.53;;;15.52;99.97
13068;BME280;6600;51.362;6.686;2023-09-19T05:34:52;100649.34;;;15.57;99.38
13068;BME280;6600;51.362;6.686;2023-09-19T05:37:22;100656.94;;;15.60;99.46
13068;BME280;6600;51.362;6.686;2023-09-19T05:39:48;100655.88;;;15.61;99.72
13068;BME280;6600;51.362;6.686;2023-09-19T05:42:14;100660.69;;;15.59;99.66
13068;BME280;6600;51.362;6.686;2023-09-19T05:44:39;100661.69;;;15.53;99.79
13068;BME280;6600;51.362;6.686;2023-09-19T05:47:05;100659.53;;;15.55;99.93
13068;BME280;6600;51.362;6.686;2023-09-19T05:49:34;100652.16;;;15.68;99.29
13068;BME280;6600;51.362;6.686;2023-09-19T05:52:00;100658.63;;;15.66;98.79
13068;BME280;6600;51.362;6.686;2023-09-19T05:54:26;100665.16;;;15.71;98.17
13068;BME280;6600;51.362;6.686;2023-09-19T05:56:52;100667.38;;;15.74;98.71
13068;BME280;6600;51.362;6.686;2023-09-19T05:59:19;100670.88;;;15.74;98.29
13068;BME280;6600;51.362;6.686;2023-09-19T06:01:44;100673.31;;;15.76;98.37
13068;BME280;6600;51.362;6.686;2023-09-19T06:04:10;100672.34;;;15.82;97.98
13068;BME280;6600;51.362;6.686;2023-09-19T06:06:35;100671.38;;;15.93;97.26
13068;BME280;6600;51.362;6.686;2023-09-19T06:09:04;100670.31;;;15.94;97.42
13068;BME280;6600;51.362;6.686;2023-09-19T06:11:31;100671.22;;;15.99;97.40
13068;BME280;6600;51.362;6.686;2023-09-19T06:13:59;100661.50;;;16.03;96.33
13068;BME280;6600;51.362;6.686;2023-09-19T06:16:25;100654.22;;;16.04;96.40
13068;BME280;6600;51.362;6.686;2023-09-19T06:18:51;100659.69;;;16.09;96.15
13068;BME280;6600;51.362;6.686;2023-09-19T06:21:18;100649.13;;;16.07;96.04
13068;BME280;6600;51.362;6.686;2023-09-19T06:23:43;100657.81;;;16.09;96.75
13068;BME280;6600;51.362;6.686;2023-09-19T06:26:08;100663.53;;;16.13;96.20
13068;BME280;6600;51.362;6.686;2023-09-19T06:28:34;100667.31;;;16.12;96.34
13068;BME280;6600;51.362;6.686;2023-09-19T06:31:02;100665.66;;;16.11;96.58
13068;BME280;6600;51.362;6.686;2023-09-19T06:33:28;100663.03;;;16.16;96.97
13068;BME280;6600;51.362;6.686;2023-09-19T06:35:53;100658.63;;;16.10;96.95
13068;BME280;6600;51.362;6.686;2023-09-19T06:38:24;100664.63;;;16.17;96.72
13068;BME280;6600;51.362;6.686;2023-09-19T06:40:49;100665.41;;;16.12;97.50
13068;BME280;6600;51.362;6.686;2023-09-19T06:43:15;100665.16;;;16.14;97.20
13068;BME280;6600;51.362;6.686;2023-09-19T06:45:40;100674.38;;;16.18;97.61
13068;BME280;6600;51.362;6.686;2023-09-19T06:48:05;100669.06;;;16.23;97.92
13068;BME280;6600;51.362;6.686;2023-09-19T06:50:32;100684.25;;;16.29;97.95
13068;BME280;6600;51.362;6.686;2023-09-19T06:52:59;100682.09;;;16.31;97.90
13068;BME280;6600;51.362;6.686;2023-09-19T06:55:26;100681.59;;;16.34;98.10
13068;BME280;6600;51.362;6.686;2023-09-19T06:57:56;100671.88;;;16.33;97.87
13068;BME280;6600;51.362;6.686;2023-09-19T07:00:21;100677.59;;;16.37;97.90
13068;BME280;6600;51.362;6.686;2023-09-19T07:03:00;100675.19;;;16.40;98.01
13068;BME280;6600;51.362;6.686;2023-09-19T07:05:30;100684.91;;;16.41;98.25
13068;BME280;6600;51.362;6.686;2023-09-19T07:07:59;100690.91;;;16.43;97.76
13068;BME280;6600;51.362;6.686;2023-09-19T07:10:26;100685.28;;;16.50;97.72
13068;BME280;6600;51.362;6.686;2023-09-19T07:13:03;100687.31;;;16.59;97.60
13068;BME280;6600;51.362;6.686;2023-09-19T07:15:32;100691.13;;;16.63;97.11
13068;BME280;6600;51.362;6.686;2023-09-19T07:18:01;100690.00;;;16.59;97.05
13068;BME280;6600;51.362;6.686;2023-09-19T07:20:26;100696.03;;;16.66;97.22
13068;BME280;6600;51.362;6.686;2023-09-19T07:22:52;100695.00;;;16.73;96.78
13068;BME280;6600;51.362;6.686;2023-09-19T07:25:20;100706.44;;;16.80;96.88
13068;BME280;6600;51.362;6.686;2023-09-19T07:27:45;100705.44;;;16.86;97.06
13068;BME280;6600;51.362;6.686;2023-09-19T07:30:11;100711.63;;;16.86;96.88
13068;BME280;6600;51.362;6.686;2023-09-19T07:32:37;100715.22;;;16.92;95.90
13068;BME280;6600;51.362;6.686;2023-09-19T07:35:03;100703.13;;;16.99;96.39
13068;BME280;6600;51.362;6.686;2023-09-19T07:37:30;100705.59;;;17.06;95.34
13068;BME280;6600;51.362;6.686;2023-09-19T07:40:04;100719.13;;;17.06;94.81
13068;BME280;6600;51.362;6.686;2023-09-19T07:42:35;100712.13;;;17.10;95.11
13068;BME280;6600;51.362;6.686;2023-09-19T07:45:02;100716.50;;;17.16;95.81
13068;BME280;6600;51.362;6.686;2023-09-19T07:47:28;100704.88;;;17.15;95.44
13068;BME280;6600;51.362;6.686;2023-09-19T07:49:55;100711.25;;;17.04;94.96
13068;BME280;6600;51.362;6.686;2023-09-19T07:52:20;100709.44;;;17.15;94.66
13068;BME280;6600;51.362;6.686;2023-09-19T07:54:47;100716.00;;;17.19;94.50
13068;BME280;6600;51.362;6.686;2023-09-19T07:57:14;100716.28;;;17.23;95.31
13068;BME280;6600;51.362;6.686;2023-09-19T07:59:40;100723.34;;;17.24;94.90
13068;BME280;6600;51.362;6.686;2023-09-19T08:02:07;100718.78;;;17.29;94.91
13068;BME280;6600;51.362;6.686;2023-09-19T08:04:41;100718.06;;;17.44;94.57
13068;BME280;6600;51.362;6.686;2023-09-19T08:07:07;100728.97;;;17.54;94.44
13068;BME280;6600;51.362;6.686;2023-09-19T08:09:34;100726.59;;;17.57;93.26
13068;BME280;6600;51.362;6.686;2023-09-19T08:11:59;100718.00;;;17.71;94.11
13068;BME280;6600;51.362;6.686;2023-09-19T08:14:28;100724.53;;;17.75;92.72
13068;BME280;6600;51.362;6.686;2023-09-19T08:16:56;100719.69;;;17.82;93.04
13068;BME280;6600;51.362;6.686;2023-09-19T08:19:22;100718.88;;;17.81;92.87
13068;BME280;6600;51.362;6.686;2023-09-19T08:21:48;100728.47;;;17.99;92.45
13068;BME280;6600;51.362;6.686;2023-09-19T08:24:13;100723.56;;;18.01;91.77
13068;BME280;6600;51.362;6.686;2023-09-19T08:26:40;100736.34;;;18.05;91.39
13068;BME280;6600;51.362;6.686;2023-09-19T08:29:05;100741.50;;;18.07;90.88
13068;BME280;6600;51.362;6.686;2023-09-19T08:31:32;100743.72;;;18.15;90.67
13068;BME280;6600;51.362;6.686;2023-09-19T08:33:58;100745.34;;;18.21;91.43
13068;BME280;6600;51.362;6.686;2023-09-19T08:36:24;100740.22;;;18.20;91.57
13068;BME280;6600;51.362;6.686;2023-09-19T08:38:50;100744.84;;;18.34;91.09
13068;BME280;6600;51.362;6.686;2023-09-19T08:41:17;100745.97;;;18.38;90.80
13068;BME280;6600;51.362;6.686;2023-09-19T08:43:42;100751.94;;;18.35;90.54
13068;BME280;6600;51.362;6.686;2023-09-19T08:46:11;100745.44;;;18.41;89.88
13068;BME280;6600;51.362;6.686;2023-09-19T08:48:46;100744.91;;;18.44;89.60
13068;BME280;6600;51.362;6.686;2023-09-19T08:51:27;100744.16;;;18.54;89.25
13068;BME280;6600;51.362;6.686;2023-09-19T08:53:59;100748.56;;;18.75;88.73
13068;BME280;6600;51.362;6.686;2023-09-19T08:56:29;100751.78;;;18.67;88.37
13068;BME280;6600;51.362;6.686;2023-09-19T08:58:57;100743.66;;;18.77;88.91
13068;BME280;6600;51.362;6.686;2023-09-19T09:01:27;100746.63;;;18.76;88.28
13068;BME280;6600;51.362;6.686;2023-09-19T09:03:53;100745.03;;;18.85;86.88
13068;BME280;6600;51.362;6.686;2023-09-19T09:06:22;100739.06;;;18.88;88.01
13068;BME280;6600;51.362;6.686;2023-09-19T09:08:50;100743.69;;;19.07;86.24
13068;BME280;6600;51.362;6.686;2023-09-19T09:11:16;100746.16;;;19.19;87.03
13068;BME280;6600;51.362;6.686;2023-09-19T09:13:43;100746.16;;;19.09;86.30
13068;BME280;6600;51.362;6.686;2023-09-19T09:16:10;100739.09;;;19.23;86.18
13068;BME280;6600;51.362;6.686;2023-09-19T09:18:36;100741.81;;;19.03;85.36
13068;BME280;6600;51.362;6.686;2023-09-19T09:21:01;100733.13;;;19.06;85.48
13068;BME280;6600;51.362;6.686;2023-09-19T09:23:27;100729.84;;;18.99;84.57
13068;BME280;6600;51.362;6.686;2023-09-19T09:25:57;100734.75;;;19.02;86.15
13068;BME280;6600;51.362;6.686;2023-09-19T09:28:26;100735.81;;;19.01;86.45
13068;BME280;6600;51.362;6.686;2023-09-19T09:30:53;100734.19;;;18.95;87.09
13068;BME280;6600;51.362;6.686;2023-09-19T09:33:19;100728.22;;;18.88;86.79
13068;BME280;6600;51.362;6.686;2023-09-19T09:35:52;100736.91;;;18.95;86.25
13068;BME280;6600;51.362;6.686;2023-09-19T09:38:19;100729.03;;;18.98;87.31
13068;BME280;6600;51.362;6.686;2023-09-19T09:40:50;100735.56;;;19.07;86.59
13068;BME280;6600;51.362;6.686;2023-09-19T09:43:26;100735.56;;;19.02;86.22
13068;BME280;6600;51.362;6.686;2023-09-19T09:46:20;100741.25;;;19.01;85.20
13068;BME280;6600;51.362;6.686;2023-09-19T09:48:46;100736.34;;;18.93;84.70
13068;BME280;6600;51.362;6.686;2023-09-19T09:51:31;100742.88;;;18.97;84.66
13068;BME280;6600;51.362;6.686;2023-09-19T09:54:17;100737.16;;;18.93;84.81
13068;BME280;6600;51.362;6.686;2023-09-19T09:56:58;100741.25;;;19.01;84.99
13068;BME280;6600;51.362;6.686;2023-09-19T09:59:50;100740.19;;;19.22;84.88
13068;BME280;6600;51.362;6.686;2023-09-19T10:02:18;100745.59;;;19.32;83.57
13068;BME280;6600;51.362;6.686;2023-09-19T10:04:51;100753.25;;;19.50;82.85
13068;BME280;6600;51.362;6.686;2023-09-19T10:07:29;100737.75;;;19.61;83.07
13068;BME280;6600;51.362;6.686;2023-09-19T10:10:02;100740.16;;;19.73;82.35
13068;BME280;6600;51.362;6.686;2023-09-19T10:12:48;100731.16;;;19.87;82.76
13068;BME280;6600;51.362;6.686;2023-09-19T10:15:19;100726.56;;;19.73;81.01
13068;BME280;6600;51.362;6.686;2023-09-19T10:17:52;100723.84;;;19.73;80.78
13068;BME280;6600;51.362;6.686;2023-09-19T10:20:21;100718.91;;;19.80;81.82
13068;BME280;6600;51.362;6.686;2023-09-19T10:22:59;100719.97;;;19.94;82.81
13068;BME280;6600;51.362;6.686;2023-09-19T10:25:28;100722.13;;;19.97;80.86
13068;BME280;6600;51.362;6.686;2023-09-19T10:27:54;100719.38;;;20.07;81.50
13068;BME280;6600;51.362;6.686;2023-09-19T10:30:23;100707.66;;;20.16;81.58
13068;BME280;6600;51.362;6.686;2023-09-19T10:33:02;100706.53;;;20.28;80.42
13068;BME280;6600;51.362;6.686;2023-09-19T10:35:29;100704.31;;;20.40;80.81
13068;BME280;6600;51.362;6.686;2023-09-19T10:37:57;100705.06;;;20.45;80.04
13068;BME280;6600;51.362;6.686;2023-09-19T10:40:26;100704.00;;;20.46;79.39
13068;BME280;6600;51.362;6.686;2023-09-19T10:43:03;100712.69;;;20.48;79.30
13068;BME280;6600;51.362;6.686;2023-09-19T10:45:35;100694.81;;;20.32;79.44
13068;BME280;6600;51.362;6.686;2023-09-19T10:48:04;100703.56;;;20.19;79.39
13068;BME280;6600;51.362;6.686;2023-09-19T10:50:36;100706.78;;;20.36;80.06
13068;BME280;6600;51.362;6.686;2023-09-19T10:53:07;100700.50;;;20.41;78.86
13068;BME280;6600;51.362;6.686;2023-09-19T10:55:36;100686.00;;;20.50;78.78
13068;BME280;6600;51.362;6.686;2023-09-19T10:58:02;100705.81;;;20.61;77.26
13068;BME280;6600;51.362;6.686;2023-09-19T11:03:21;100701.06;;;20.77;77.42
13068;BME280;6600;51.362;6.686;2023-09-19T11:06:08;100706.78;;;20.36;77.48
13068;BME280;6600;51.362;6.686;2023-09-19T11:30:31;100720.75;;;20.69;76.00
13068;BME280;6600;51.362;6.686;2023-09-19T11:44:31;100692.31;;;20.80;75.75
13068;BME280;6600;51.362;6.686;2023-09-19T11:49:26;100695.94;;;21.04;75.12
13068;BME280;6600;51.362;6.686;2023-09-19T11:51:55;100702.31;;;21.28;74.68
13068;BME280;6600;51.362;6.686;2023-09-19T11:54:21;100693.28;;;21.33;73.62
13068;BME280;6600;51.362;6.686;2023-09-19T11:56:53;100677.22;;;21.31;73.41
13068;BME280;6600;51.362;6.686;2023-09-19T11:59:29;100693.53;;;21.36;72.99
13068;BME280;6600;51.362;6.686;2023-09-19T12:02:03;100675.31;;;21.32;72.74
13068;BME280;6600;51.362;6.686;2023-09-19T12:06:58;100674.81;;;21.25;72.10
13068;BME280;6600;51.362;6.686;2023-09-19T12:09:24;100668.06;;;21.17;70.81
13068;BME280;6600;51.362;6.686;2023-09-19T12:11:50;100662.06;;;21.20;72.48
13068;BME280;6600;51.362;6.686;2023-09-19T12:14:26;100674.47;;;21.31;72.24
13068;BME280;6600;51.362;6.686;2023-09-19T12:16:53;100667.31;;;21.40;71.19
13068;BME280;6600;51.362;6.686;2023-09-19T12:19:21;100664.06;;;21.38;70.95
13068;BME280;6600;51.362;6.686;2023-09-19T12:22:03;100668.94;;;21.41;70.81
13068;BME280;6600;51.362;6.686;2023-09-19T12:24:33;100664.63;;;21.35;70.70
13068;BME280;6600;51.362;6.686;2023-09-19T12:27:04;100659.75;;;21.32;71.04
13068;BME280;6600;51.362;6.686;2023-09-19T12:29:44;100648.63;;;21.29;70.65
13068;BME280;6600;51.362;6.686;2023-09-19T12:32:10;100655.72;;;21.30;71.02
13068;BME280;6600;51.362;6.686;2023-09-19T12:34:36;100657.66;;;21.24;69.71
13068;BME280;6600;51.362;6.686;2023-09-19T12:37:16;100646.28;;;21.17;70.35
13068;BME280;6600;51.362;6.686;2023-09-19T12:40:06;100634.25;;;21.23;69.91
13068;BME280;6600;51.362;6.686;2023-09-19T12:42:43;100636.31;;;21.31;70.24
13068;BME280;6600;51.362;6.686;2023-09-19T12:45:10;100639.25;;;21.40;70.70
13068;BME280;6600;51.362;6.686;2023-09-19T12:47:38;100625.00;;;21.48;70.37
13068;BME280;6600;51.362;6.686;2023-09-19T12:50:08;100623.72;;;21.40;69.16
13068;BME280;6600;51.362;6.686;2023-09-19T12:52:43;100623.59;;;21.50;69.66
13068;BME280;6600;51.362;6.686;2023-09-19T12:58:08;100623.22;;;21.81;71.65
13068;BME280;6600;51.362;6.686;2023-09-19T13:06:12;100643.31;;;21.66;71.12
13068;BME280;6600;51.362;6.686;2023-09-19T13:08:42;100638.16;;;21.64;70.58
13068;BME280;6600;51.362;6.686;2023-09-19T13:11:10;100647.25;;;21.55;70.62
13068;BME280;6600;51.362;6.686;2023-09-19T13:13:37;100638.19;;;21.59;70.72
13068;BME280;6600;51.362;6.686;2023-09-19T13:16:04;100646.56;;;21.68;71.55
13068;BME280;6600;51.362;6.686;2023-09-19T13:18:52;100635.44;;;21.64;70.45
13068;BME280;6600;51.362;6.686;2023-09-19T13:21:31;100632.88;;;21.49;71.29
13068;BME280;6600;51.362;6.686;2023-09-19T13:24:19;100640.53;;;21.71;72.25
13068;BME280;6600;51.362;6.686;2023-09-19T13:26:44;100644.59;;;21.74;71.19
13068;BME280;6600;51.362;6.686;2023-09-19T13:29:11;100629.28;;;21.54;71.35
13068;BME280;6600;51.362;6.686;2023-09-19T13:31:36;100634.63;;;21.40;71.89
13068;BME280;6600;51.362;6.686;2023-09-19T13:34:06;100633.53;;;21.12;71.94
13068;BME280;6600;51.362;6.686;2023-09-19T13:36:31;100640.09;;;21.06;71.70
13068;BME280;6600;51.362;6.686;2023-09-19T13:38:57;100642.59;;;21.03;72.40
13068;BME280;6600;51.362;6.686;2023-09-19T13:41:24;100647.59;;;20.91;72.59
13068;BME280;6600;51.362;6.686;2023-09-19T13:43:49;100629.03;;;20.93;73.23
13068;BME280;6600;51.362;6.686;2023-09-19T13:46:14;100640.59;;;20.80;73.59
13068;BME280;6600;51.362;6.686;2023-09-19T13:48:41;100645.94;;;20.90;73.71
13068;BME280;6600;51.362;6.686;2023-09-19T13:51:07;100641.16;;;20.77;74.11
13068;BME280;6600;51.362;6.686;2023-09-19T13:53:32;100641.38;;;20.85;73.38
13068;BME280;6600;51.362;6.686;2023-09-19T13:55:57;100643.56;;;20.83;73.94
13068;BME280;6600;51.362;6.686;2023-09-19T13:58:23;100636.19;;;20.84;73.32
13068;BME280;6600;51.362;6.686;2023-09-19T14:00:49;100625.28;;;20.89;73.28
13068;BME280;6600;51.362;6.686;2023-09-19T14:03:14;100632.72;;;21.07;73.73
13068;BME280;6600;51.362;6.686;2023-09-19T14:05:40;100638.75;;;21.04;74.06
13068;BME280;6600;51.362;6.686;2023-09-19T14:08:07;100631.94;;;21.06;73.64
13068;BME280;6600;51.362;6.686;2023-09-19T14:10:34;100629.81;;;20.98;73.97
13068;BME280;6600;51.362;6.686;2023-09-19T14:13:00;100643.19;;;20.95;74.02
13068;BME280;6600;51.362;6.686;2023-09-19T14:15:26;100637.75;;;20.95;73.99